Time;durP1;ratioP1;P1;durP2;ratioP2;P2;SDS_P1;SDS_P2;PMS_P1;PMS_P2;Temp;Humidity;BMP_temperature;BMP_pressure;BME280_temperature;BME280_humidity;BME280_pressure;Samples;Min_cycle;Max_cycle;Signal;HPM_P1;HPM_P2
2021/03/23 00:00:50;;;;;;;2.58;1.60;;;7.50;80.90;;;;;;5106206;28;20110;-88
2021/03/23 00:03:21;;;;;;;2.67;1.70;;;7.40;81.20;;;;;;5100605;28;20193;-88
2021/03/23 00:05:47;;;;;;;6.18;1.60;;;7.40;81.20;;;;;;5109772;28;20050;-88
2021/03/23 00:08:34;;;;;;;3.03;2.08;;;7.20;81.20;;;;;;5101723;28;20040;-87
2021/03/23 00:11:10;;;;;;;2.83;1.10;;;7.20;81.20;;;;;;5112663;28;20031;-88
2021/03/23 00:13:41;;;;;;;3.42;1.38;;;7.10;81.50;;;;;;5098767;28;20043;-88
2021/03/23 00:16:07;;;;;;;3.33;1.98;;;7.10;81.90;;;;;;5098661;28;20419;-87
2021/03/23 00:18:33;;;;;;;2.28;1.40;;;7.00;81.70;;;;;;5096523;28;20040;-87
2021/03/23 00:20:59;;;;;;;3.28;1.80;;;7.00;81.80;;;;;;5089515;28;20044;-87
2021/03/23 00:23:25;;;;;;;3.30;2.10;;;7.00;81.90;;;;;;5100176;28;20048;-87
2021/03/23 00:25:50;;;;;;;4.75;2.10;;;7.00;82.10;;;;;;5112419;28;20046;-86
2021/03/23 00:28:16;;;;;;;3.30;1.60;;;7.00;82.40;;;;;;5097534;28;20044;-87
2021/03/23 00:30:42;;;;;;;5.60;2.13;;;7.00;82.60;;;;;;5098005;28;20500;-88
2021/03/23 00:33:08;;;;;;;4.75;1.83;;;7.00;82.60;;;;;;5105856;28;20052;-87
2021/03/23 00:35:35;;;;;;;3.13;2.13;;;7.00;82.80;;;;;;5105713;28;20266;-87
2021/03/23 00:38:04;;;;;;;5.68;1.88;;;7.00;82.80;;;;;;5114022;28;20050;-86
2021/03/23 00:40:34;;;;;;;3.88;1.48;;;7.00;82.90;;;;;;5109930;28;20035;-87
2021/03/23 00:43:02;;;;;;;3.47;1.92;;;7.10;83.00;;;;;;5102613;28;20036;-87
2021/03/23 00:45:29;;;;;;;5.65;2.40;;;7.00;82.90;;;;;;5106054;28;20467;-87
2021/03/23 00:47:54;;;;;;;3.50;2.10;;;7.00;82.70;;;;;;5096670;28;20047;-86
2021/03/23 00:50:20;;;;;;;6.78;2.47;;;7.10;83.10;;;;;;5112554;28;20386;-86
2021/03/23 00:52:46;;;;;;;3.17;1.80;;;7.10;83.30;;;;;;5103101;28;20393;-87
2021/03/23 00:55:11;;;;;;;4.88;2.20;;;7.10;83.50;;;;;;5090151;28;20410;-85
2021/03/23 00:57:37;;;;;;;5.30;2.08;;;7.10;83.30;;;;;;5096632;28;20051;-87
2021/03/23 01:00:05;;;;;;;6.50;1.88;;;7.10;83.50;;;;;;5101374;28;20079;-86
2021/03/23 01:02:31;;;;;;;5.03;1.73;;;7.10;83.90;;;;;;5091706;28;20484;-86
2021/03/23 01:04:56;;;;;;;6.80;2.47;;;7.10;83.90;;;;;;5097195;28;20123;-86
2021/03/23 01:07:21;;;;;;;6.80;2.45;;;7.10;83.90;;;;;;5102367;28;20112;-87
2021/03/23 01:09:47;;;;;;;4.88;2.38;;;7.20;84.40;;;;;;5095950;28;20581;-86
2021/03/23 01:12:13;;;;;;;3.55;2.47;;;7.10;84.30;;;;;;5090434;28;20055;-86
2021/03/23 01:14:39;;;;;;;4.38;2.35;;;7.20;84.50;;;;;;5096969;28;20047;-86
2021/03/23 01:17:06;;;;;;;4.72;2.35;;;7.20;84.40;;;;;;5097780;28;20051;-85
2021/03/23 01:19:31;;;;;;;5.15;2.55;;;7.20;84.40;;;;;;5105041;28;20297;-86
2021/03/23 01:21:57;;;;;;;4.00;1.92;;;7.20;84.40;;;;;;5096633;28;20040;-86
2021/03/23 01:24:23;;;;;;;4.03;1.60;;;7.20;84.30;;;;;;5112711;28;20097;-86
2021/03/23 01:26:49;;;;;;;6.22;2.53;;;7.20;84.80;;;;;;5101470;28;20185;-86
2021/03/23 01:29:14;;;;;;;4.05;2.03;;;7.20;84.40;;;;;;5090198;28;20402;-87
2021/03/23 01:31:40;;;;;;;3.55;1.92;;;7.30;84.20;;;;;;5104990;28;20104;-87
2021/03/23 01:34:05;;;;;;;4.82;2.38;;;7.30;84.50;;;;;;5101163;28;20136;-86
2021/03/23 01:36:31;;;;;;;4.63;2.45;;;7.20;84.20;;;;;;5104614;28;20054;-87
2021/03/23 01:38:57;;;;;;;6.85;3.17;;;7.20;84.20;;;;;;5109563;28;20040;-86
2021/03/23 01:41:22;;;;;;;4.57;1.88;;;7.20;84.40;;;;;;5097994;28;20036;-87
2021/03/23 01:43:50;;;;;;;6.25;2.50;;;7.30;84.30;;;;;;5101710;28;20071;-87
2021/03/23 01:46:40;;;;;;;2.83;1.90;;;7.30;84.20;;;;;;5099132;28;20036;-87
2021/03/23 01:49:37;;;;;;;8.18;2.25;;;7.20;84.40;;;;;;5103511;28;20304;-87
2021/03/23 01:52:08;;;;;;;2.20;1.90;;;7.20;84.80;;;;;;5084277;28;20529;-86
2021/03/23 01:54:42;;;;;;;3.27;1.60;;;7.20;85.10;;;;;;5098428;28;21628;-87
2021/03/23 01:57:10;;;;;;;2.88;1.83;;;7.10;85.30;;;;;;5096689;28;20032;-86
2021/03/23 01:59:43;;;;;;;3.42;2.00;;;7.10;85.30;;;;;;5096322;28;20040;-87
2021/03/23 02:02:08;;;;;;;2.25;1.75;;;7.00;85.50;;;;;;5111309;28;20335;-87
2021/03/23 02:04:34;;;;;;;1.80;1.40;;;7.00;85.40;;;;;;5100026;28;20051;-87
2021/03/23 02:06:59;;;;;;;1.70;1.23;;;7.10;85.60;;;;;;5108998;28;20125;-87
2021/03/23 02:09:28;;;;;;;2.97;1.83;;;7.10;85.50;;;;;;5105685;28;20118;-87
2021/03/23 02:12:01;;;;;;;2.92;1.70;;;7.10;85.60;;;;;;5101934;28;20036;-87
2021/03/23 02:14:29;;;;;;;4.47;1.58;;;7.00;85.70;;;;;;5097742;28;20076;-87
2021/03/23 02:17:15;;;;;;;3.80;2.28;;;7.10;85.60;;;;;;5115863;28;20074;-86
2021/03/23 02:19:41;;;;;;;13.43;1.52;;;6.90;85.70;;;;;;5090168;28;20031;-86
2021/03/23 02:22:13;;;;;;;2.08;1.48;;;6.90;86.10;;;;;;5095745;28;20035;-87
2021/03/23 02:24:38;;;;;;;3.15;1.50;;;6.70;87.50;;;;;;5108372;28;20036;-86
2021/03/23 02:27:04;;;;;;;3.80;2.10;;;6.60;87.90;;;;;;5100419;28;20047;-87
2021/03/23 02:29:30;;;;;;;2.33;1.75;;;6.60;88.70;;;;;;5100466;28;20046;-87
2021/03/23 02:31:56;;;;;;;3.08;2.47;;;6.60;89.50;;;;;;5111119;28;20047;-88
2021/03/23 02:34:24;;;;;;;7.07;1.80;;;6.60;89.30;;;;;;5098485;28;20400;-88
2021/03/23 02:36:51;;;;;;;3.15;1.50;;;6.70;89.20;;;;;;5100635;28;20040;-87
2021/03/23 02:39:24;;;;;;;4.63;1.50;;;6.70;90.00;;;;;;5102232;28;20107;-86
2021/03/23 02:41:49;;;;;;;2.50;1.70;;;6.70;89.70;;;;;;5114757;28;20127;-88
2021/03/23 02:44:15;;;;;;;6.40;1.90;;;6.70;89.70;;;;;;5087892;28;20127;-87
2021/03/23 02:46:40;;;;;;;8.35;2.33;;;6.70;89.70;;;;;;5101845;28;20353;-87
2021/03/23 02:49:07;;;;;;;5.25;2.35;;;6.70;90.20;;;;;;5100054;28;20381;-89
2021/03/23 02:51:33;;;;;;;7.47;2.35;;;6.60;90.10;;;;;;5101331;28;20135;-88
2021/03/23 02:53:58;;;;;;;5.93;2.55;;;6.70;90.20;;;;;;5107740;28;20112;-87
2021/03/23 02:56:24;;;;;;;6.03;2.03;;;6.70;90.00;;;;;;5090013;28;20415;-87
2021/03/23 02:58:49;;;;;;;4.47;1.80;;;6.70;90.00;;;;;;5108485;28;20100;-87
2021/03/23 03:01:16;;;;;;;3.05;1.30;;;6.70;90.00;;;;;;5105984;28;20039;-88
2021/03/23 03:03:42;;;;;;;7.50;2.25;;;6.70;89.80;;;;;;5104199;28;20082;-87
2021/03/23 03:06:09;;;;;;;2.45;1.92;;;6.70;89.40;;;;;;5098646;28;20142;-88
2021/03/23 03:08:34;;;;;;;3.20;1.98;;;6.70;89.30;;;;;;5106012;28;20035;-89
2021/03/23 03:11:00;;;;;;;2.88;1.58;;;6.70;89.80;;;;;;5100932;28;20097;-87
2021/03/23 03:13:26;;;;;;;2.47;1.63;;;6.70;89.30;;;;;;5113455;28;20035;-88
2021/03/23 03:15:54;;;;;;;4.07;1.70;;;6.70;89.00;;;;;;5103058;28;20032;-88
2021/03/23 03:18:21;;;;;;;3.08;1.77;;;6.70;88.80;;;;;;5117753;28;20617;-89
2021/03/23 03:20:48;;;;;;;4.55;1.50;;;6.70;88.60;;;;;;5106274;28;20043;-87
2021/03/23 03:23:14;;;;;;;2.88;1.73;;;6.70;88.10;;;;;;5104512;28;20090;-88
2021/03/23 03:25:40;;;;;;;3.33;1.52;;;6.70;88.20;;;;;;5106943;28;20043;-87
2021/03/23 03:28:07;;;;;;;2.67;1.85;;;6.70;88.20;;;;;;5102739;28;20066;-87
2021/03/23 03:30:36;;;;;;;4.90;1.88;;;6.70;88.10;;;;;;5111450;27;20068;-88
2021/03/23 03:33:02;;;;;;;3.95;1.80;;;6.70;88.30;;;;;;5102368;28;20038;-87
2021/03/23 03:35:34;;;;;;;4.30;2.35;;;6.70;88.70;;;;;;5101281;28;20040;-87
2021/03/23 03:38:01;;;;;;;6.38;1.70;;;6.80;88.40;;;;;;5118765;28;20039;-85
2021/03/23 03:40:31;;;;;;;3.65;1.58;;;6.80;88.30;;;;;;5108690;28;20298;-85
2021/03/23 03:42:57;;;;;;;3.28;1.77;;;6.80;88.50;;;;;;5100160;28;20112;-86
2021/03/23 03:45:25;;;;;;;4.60;1.77;;;6.70;88.20;;;;;;5097964;28;20334;-86
2021/03/23 03:47:52;;;;;;;3.70;2.20;;;6.70;88.10;;;;;;5109073;28;20068;-86
2021/03/23 03:50:19;;;;;;;2.42;1.35;;;6.70;88.90;;;;;;5108464;28;20043;-86
2021/03/23 03:52:44;;;;;;;7.32;2.28;;;6.80;88.50;;;;;;5098811;28;20301;-86
2021/03/23 03:55:14;;;;;;;3.67;1.80;;;6.80;88.60;;;;;;5098547;28;20036;-87
2021/03/23 03:57:39;;;;;;;4.50;2.20;;;6.80;88.70;;;;;;5101851;28;20663;-87
2021/03/23 04:00:06;;;;;;;5.50;1.80;;;6.80;88.30;;;;;;5099538;28;20040;-87
2021/03/23 04:02:32;;;;;;;3.15;2.00;;;6.80;88.40;;;;;;5097961;28;20038;-86
2021/03/23 04:04:57;;;;;;;4.25;2.05;;;6.90;88.60;;;;;;5110168;28;20073;-86
2021/03/23 04:07:23;;;;;;;4.90;1.55;;;6.90;88.50;;;;;;5097026;28;20094;-87
2021/03/23 04:09:48;;;;;;;6.15;3.17;;;6.90;88.50;;;;;;5101406;28;20054;-87
2021/03/23 04:12:14;;;;;;;7.13;2.08;;;6.80;88.70;;;;;;5108920;28;20298;-87
2021/03/23 04:14:39;;;;;;;4.50;1.73;;;6.80;88.70;;;;;;5097073;28;20137;-86
2021/03/23 04:17:05;;;;;;;4.28;2.15;;;6.80;88.80;;;;;;5107966;28;20054;-86
2021/03/23 04:19:31;;;;;;;6.95;2.67;;;6.90;88.90;;;;;;5095707;28;20047;-86
2021/03/23 04:21:56;;;;;;;7.70;2.28;;;6.80;89.30;;;;;;5097888;28;20039;-87
2021/03/23 04:24:23;;;;;;;3.03;1.63;;;6.80;89.70;;;;;;5097674;28;20126;-88
2021/03/23 04:26:48;;;;;;;3.13;1.58;;;6.80;88.80;;;;;;5098202;28;20032;-87
2021/03/23 04:29:14;;;;;;;4.47;1.90;;;6.80;88.50;;;;;;5107341;28;20151;-88
2021/03/23 04:31:44;;;;;;;3.97;1.95;;;6.80;88.20;;;;;;5109999;28;20055;-87
2021/03/23 04:34:13;;;;;;;4.03;2.05;;;6.80;88.20;;;;;;5096383;28;20101;-87
2021/03/23 04:36:39;;;;;;;3.92;1.60;;;6.80;88.10;;;;;;5087633;28;20497;-87
2021/03/23 04:39:07;;;;;;;4.60;2.10;;;6.80;87.70;;;;;;5093003;28;20130;-87
2021/03/23 04:41:33;;;;;;;2.80;1.30;;;6.80;87.30;;;;;;5106575;28;20046;-87
2021/03/23 04:43:59;;;;;;;3.45;1.40;;;6.80;87.40;;;;;;5110493;28;20047;-86
2021/03/23 04:46:27;;;;;;;2.08;1.02;;;6.70;87.50;;;;;;5097456;28;20050;-87
2021/03/23 04:48:53;;;;;;;2.03;1.30;;;6.70;87.60;;;;;;5099320;28;20431;-87
2021/03/23 04:51:21;;;;;;;2.47;1.13;;;6.70;87.00;;;;;;5103153;28;20040;-87
2021/03/23 04:53:46;;;;;;;2.10;1.27;;;6.70;87.00;;;;;;5103283;28;20529;-87
2021/03/23 04:56:24;;;;;;;4.43;1.73;;;6.70;87.30;;;;;;5112485;28;20046;-87
2021/03/23 04:58:50;;;;;;;2.10;1.38;;;6.70;86.90;;;;;;5107006;28;20043;-87
2021/03/23 05:01:15;;;;;;;2.97;1.20;;;6.70;86.90;;;;;;5097904;28;20259;-87
2021/03/23 05:03:41;;;;;;;3.85;1.42;;;6.70;87.10;;;;;;5096018;28;20044;-86
2021/03/23 05:06:10;;;;;;;2.20;1.05;;;6.70;87.10;;;;;;5096409;28;20392;-87
2021/03/23 05:08:38;;;;;;;2.10;1.10;;;6.80;86.90;;;;;;5113023;28;20039;-87
2021/03/23 05:11:05;;;;;;;4.28;1.85;;;6.80;86.90;;;;;;5099935;28;20128;-87
2021/03/23 05:13:30;;;;;;;4.20;2.10;;;6.80;87.80;;;;;;5096426;28;20144;-86
2021/03/23 05:15:56;;;;;;;7.00;2.38;;;6.80;88.60;;;;;;5096571;28;20067;-88
2021/03/23 05:18:22;;;;;;;4.25;2.08;;;6.80;88.90;;;;;;5101486;28;20032;-87
2021/03/23 05:20:48;;;;;;;4.35;3.05;;;6.80;89.30;;;;;;5099572;28;20039;-87
2021/03/23 05:23:13;;;;;;;3.88;2.67;;;6.80;89.80;;;;;;5108013;28;20043;-88
2021/03/23 05:25:40;;;;;;;4.35;2.83;;;6.80;90.10;;;;;;5095641;28;20130;-87
2021/03/23 05:28:06;;;;;;;3.20;2.78;;;6.80;90.20;;;;;;5095601;28;20040;-87
2021/03/23 05:30:31;;;;;;;5.85;3.60;;;6.80;90.40;;;;;;5103784;28;20063;-87
2021/03/23 05:32:57;;;;;;;4.82;3.60;;;6.80;90.50;;;;;;5091434;28;20039;-87
2021/03/23 05:35:23;;;;;;;7.30;2.95;;;6.70;90.80;;;;;;5094787;28;20168;-87
2021/03/23 05:37:49;;;;;;;9.93;3.33;;;6.80;90.70;;;;;;5092469;28;20036;-86
2021/03/23 05:40:40;;;;;;;5.35;3.72;;;6.70;91.00;;;;;;5094182;28;20491;-87
2021/03/23 05:43:30;;;;;;;9.25;4.95;;;6.70;90.90;;;;;;5095066;28;20035;-87
2021/03/23 05:46:14;;;;;;;5.55;3.28;;;6.70;91.00;;;;;;5081876;28;20036;-87
2021/03/23 05:49:08;;;;;;;7.68;3.28;;;6.60;91.20;;;;;;5093902;28;20096;-86
2021/03/23 05:51:58;;;;;;;6.30;3.80;;;6.70;91.20;;;;;;5061155;28;20045;-87
2021/03/23 05:54:34;;;;;;;7.68;3.35;;;6.70;91.20;;;;;;5090887;28;20050;-86
2021/03/23 05:57:06;;;;;;;12.88;4.05;;;6.50;91.50;;;;;;5097772;28;20089;-87
2021/03/23 05:59:42;;;;;;;9.38;3.58;;;6.50;91.60;;;;;;5094567;28;20096;-86
2021/03/23 06:02:22;;;;;;;6.38;4.00;;;6.60;91.60;;;;;;5086805;28;20047;-85
2021/03/23 06:04:56;;;;;;;8.15;3.28;;;6.60;91.60;;;;;;5078112;28;20044;-86
2021/03/23 06:07:22;;;;;;;6.57;3.53;;;6.60;91.50;;;;;;5088144;28;20036;-86
2021/03/23 06:09:47;;;;;;;7.35;3.25;;;6.60;91.60;;;;;;5103071;28;20324;-86
2021/03/23 06:13:03;;;;;;;6.00;2.92;;;6.70;91.30;;;;;;5105603;28;20119;-86
2021/03/23 06:15:39;;;;;;;4.50;3.03;;;6.80;91.20;;;;;;5082712;28;20028;-85
2021/03/23 06:18:12;;;;;;;5.15;3.35;;;6.80;90.80;;;;;;5092892;28;20387;-85
2021/03/23 06:20:54;;;;;;;5.60;3.78;;;6.90;90.70;;;;;;5091144;28;20535;-85
2021/03/23 06:23:54;;;;;;;5.45;3.47;;;7.00;90.80;;;;;;5093862;28;20036;-86
2021/03/23 06:26:39;;;;;;;4.32;3.15;;;7.10;90.60;;;;;;5095237;28;20040;-87
2021/03/23 06:29:42;;;;;;;7.63;3.65;;;7.20;90.50;;;;;;5093903;28;20054;-87
2021/03/23 06:32:17;;;;;;;7.38;3.22;;;7.30;90.20;;;;;;5093608;28;20138;-85
2021/03/23 06:34:43;;;;;;;5.30;3.38;;;7.40;90.10;;;;;;5094163;28;20044;-87
2021/03/23 06:37:26;;;;;;;4.60;3.40;;;7.40;90.10;;;;;;5093020;28;20036;-86
2021/03/23 06:39:51;;;;;;;6.70;3.78;;;7.40;90.00;;;;;;5093403;28;20032;-87
2021/03/23 06:42:38;;;;;;;13.77;3.10;;;7.40;89.90;;;;;;5088932;28;20414;-86
2021/03/23 06:45:17;;;;;;;4.07;2.97;;;7.30;89.80;;;;;;5092209;28;20197;-87
2021/03/23 06:47:43;;;;;;;5.07;2.67;;;7.20;90.10;;;;;;5091802;28;20036;-87
2021/03/23 06:50:33;;;;;;;4.75;3.20;;;7.20;90.20;;;;;;5092660;28;20413;-86
2021/03/23 06:53:09;;;;;;;6.40;3.22;;;7.20;90.00;;;;;;5079117;28;20118;-87
2021/03/23 06:55:37;;;;;;;7.60;3.28;;;7.10;90.20;;;;;;5091535;28;20066;-87
2021/03/23 06:58:21;;;;;;;5.00;3.28;;;7.10;90.40;;;;;;5091889;28;20093;-86
2021/03/23 07:01:07;;;;;;;7.13;2.97;;;7.10;90.40;;;;;;5093959;28;20496;-86
2021/03/23 07:03:32;;;;;;;3.72;3.00;;;7.10;90.40;;;;;;5095512;28;20369;-87
2021/03/23 07:05:58;;;;;;;6.97;2.65;;;7.00;90.20;;;;;;5096887;28;20036;-86
2021/03/23 07:08:25;;;;;;;5.38;3.65;;;6.90;90.70;;;;;;5082247;28;20221;-86
2021/03/23 07:10:54;;;;;;;4.00;2.75;;;6.90;90.90;;;;;;5091342;28;20075;-85
2021/03/23 07:13:25;;;;;;;3.70;2.92;;;6.80;91.20;;;;;;5095208;28;20124;-87
2021/03/23 07:16:10;;;;;;;3.33;2.72;;;6.90;91.40;;;;;;5095850;28;20040;-85
2021/03/23 07:18:39;;;;;;;3.90;2.58;;;6.80;92.10;;;;;;5096625;28;20260;-86
2021/03/23 07:21:22;;;;;;;4.38;2.90;;;6.80;91.80;;;;;;5095643;28;20032;-86
2021/03/23 07:24:04;;;;;;;3.15;2.40;;;6.80;91.90;;;;;;5096492;28;20105;-85
2021/03/23 07:26:34;;;;;;;4.95;1.70;;;6.60;91.90;;;;;;5096066;28;20168;-86
2021/03/23 07:29:11;;;;;;;4.30;1.80;;;6.60;92.00;;;;;;5094419;28;20136;-86
2021/03/23 07:31:46;;;;;;;3.10;2.30;;;6.50;92.20;;;;;;5095294;28;20047;-85
2021/03/23 07:34:30;;;;;;;3.15;1.80;;;6.50;92.50;;;;;;5095295;28;20043;-86
2021/03/23 07:37:00;;;;;;;6.38;2.28;;;6.50;92.50;;;;;;5081357;28;20115;-86
2021/03/23 07:40:07;;;;;;;3.33;2.60;;;6.50;92.40;;;;;;5095593;28;20350;-86
2021/03/23 07:42:43;;;;;;;4.03;2.42;;;6.50;92.50;;;;;;5042604;28;20048;-85
2021/03/23 07:45:41;;;;;;;5.70;2.53;;;6.50;92.70;;;;;;5067652;28;20032;-85
2021/03/23 07:48:15;;;;;;;2.90;2.13;;;6.50;92.40;;;;;;5061793;28;20076;-85
2021/03/23 07:50:44;;;;;;;6.13;2.10;;;6.50;92.10;;;;;;5083489;28;20079;-86
2021/03/23 07:53:31;;;;;;;3.35;2.38;;;6.60;92.40;;;;;;5095705;28;20050;-85
2021/03/23 07:56:04;;;;;;;4.25;2.30;;;6.70;92.00;;;;;;5096086;28;20105;-85
2021/03/23 07:58:45;;;;;;;5.68;2.92;;;6.80;91.90;;;;;;5096127;28;20074;-86
2021/03/23 08:01:20;;;;;;;3.67;2.75;;;6.90;91.50;;;;;;5095835;28;20036;-85
2021/03/23 08:04:10;;;;;;;2.60;2.00;;;7.00;91.30;;;;;;5094920;28;20047;-86
2021/03/23 08:06:54;;;;;;;6.05;2.88;;;7.20;91.30;;;;;;5095807;28;20423;-85
2021/03/23 08:09:47;;;;;;;3.10;2.40;;;7.30;91.20;;;;;;5095043;28;20036;-86
2021/03/23 08:12:50;;;;;;;3.72;2.33;;;7.40;90.70;;;;;;5094131;28;20046;-86
2021/03/23 08:15:38;;;;;;;6.72;2.05;;;7.50;90.90;;;;;;5094390;28;20050;-86
2021/03/23 08:18:57;;;;;;;4.45;2.75;;;7.60;90.40;;;;;;5095699;28;20040;-86
2021/03/23 08:21:51;;;;;;;4.18;2.70;;;7.60;90.40;;;;;;5081055;28;20051;-85
2021/03/23 08:24:25;;;;;;;3.97;2.72;;;7.60;90.20;;;;;;5095715;28;20047;-87
2021/03/23 08:27:18;;;;;;;5.68;3.03;;;7.70;90.40;;;;;;5093325;28;20476;-86
2021/03/23 08:30:08;;;;;;;4.13;2.88;;;7.70;90.20;;;;;;5079453;28;20043;-86
2021/03/23 08:33:20;;;;;;;8.15;3.20;;;7.80;90.00;;;;;;5094152;28;20043;-86
2021/03/23 08:36:19;;;;;;;3.70;2.97;;;7.80;90.00;;;;;;5033393;28;20049;-86
2021/03/23 08:39:14;;;;;;;4.18;2.80;;;7.90;89.20;;;;;;5087299;28;20700;-86
2021/03/23 08:41:56;;;;;;;3.95;3.10;;;7.90;88.90;;;;;;5094325;28;20112;-85
2021/03/23 08:44:36;;;;;;;4.90;3.30;;;7.90;90.20;;;;;;5093908;28;20039;-86
2021/03/23 08:47:30;;;;;;;5.22;3.30;;;8.00;89.70;;;;;;5093087;28;20058;-87
2021/03/23 08:50:19;;;;;;;3.08;2.72;;;8.10;89.20;;;;;;5090575;28;20106;-88
2021/03/23 08:52:48;;;;;;;4.57;3.13;;;8.10;88.50;;;;;;5075621;28;20159;-86
2021/03/23 08:55:29;;;;;;;2.83;2.55;;;8.10;88.50;;;;;;5092146;28;20044;-87
2021/03/23 08:57:58;;;;;;;6.07;3.63;;;8.00;88.10;;;;;;5092826;28;20479;-87
2021/03/23 09:00:36;;;;;;;4.28;3.15;;;8.00;88.90;;;;;;5094250;28;20069;-87
2021/03/23 09:03:37;;;;;;;7.38;3.38;;;8.10;89.30;;;;;;5090558;28;20036;-86
2021/03/23 09:06:03;;;;;;;6.20;2.92;;;8.20;88.50;;;;;;5092148;28;20035;-86
2021/03/23 09:08:48;;;;;;;3.53;3.15;;;8.20;87.80;;;;;;5093922;28;20070;-86
2021/03/23 09:11:22;;;;;;;4.80;3.55;;;8.20;87.90;;;;;;5074864;28;20040;-86
2021/03/23 09:14:06;;;;;;;5.07;3.03;;;8.30;88.60;;;;;;5093803;28;20062;-86
2021/03/23 09:16:49;;;;;;;5.55;3.13;;;8.30;88.10;;;;;;5089209;28;20478;-85
2021/03/23 09:19:45;;;;;;;3.72;3.22;;;8.40;87.10;;;;;;5073783;28;20052;-87
2021/03/23 09:22:10;;;;;;;5.30;2.90;;;8.50;87.80;;;;;;5073998;28;20298;-87
2021/03/23 09:24:38;;;;;;;5.18;2.45;;;8.50;87.60;;;;;;5083859;28;20048;-87
2021/03/23 09:27:26;;;;;;;2.03;1.58;;;8.70;86.30;;;;;;5092859;28;20035;-86
2021/03/23 09:29:52;;;;;;;1.85;1.20;;;8.80;83.30;;;;;;5067240;28;20382;-88
2021/03/23 09:32:23;;;;;;;2.35;1.52;;;8.90;82.50;;;;;;5093560;28;20055;-88
2021/03/23 09:35:15;;;;;;;2.15;1.45;;;8.80;81.80;;;;;;5093642;28;20035;-87
2021/03/23 09:38:10;;;;;;;2.85;1.25;;;8.80;81.80;;;;;;5084113;28;20113;-87
2021/03/23 09:40:41;;;;;;;1.70;1.20;;;8.90;81.60;;;;;;5074923;28;20040;-87
2021/03/23 09:43:28;;;;;;;2.17;1.80;;;8.80;81.90;;;;;;5093460;28;20606;-86
2021/03/23 09:46:03;;;;;;;1.92;1.48;;;8.80;80.30;;;;;;5079060;28;20047;-86
2021/03/23 09:48:45;;;;;;;1.65;1.55;;;8.70;81.30;;;;;;5093024;28;20063;-86
2021/03/23 09:51:39;;;;;;;1.80;1.55;;;8.70;82.20;;;;;;5091914;28;20306;-86
2021/03/23 09:54:19;;;;;;;2.75;1.83;;;8.70;80.60;;;;;;5092573;28;20063;-87
2021/03/23 09:56:48;;;;;;;1.92;1.40;;;8.70;80.70;;;;;;5092346;28;20040;-86
2021/03/23 09:59:18;;;;;;;2.70;1.92;;;8.60;81.40;;;;;;5093900;28;20032;-85
2021/03/23 10:01:52;;;;;;;3.35;2.00;;;8.60;81.50;;;;;;5092926;28;20063;-87
2021/03/23 10:04:34;;;;;;;3.67;2.35;;;8.60;82.40;;;;;;5092830;28;20051;-87
2021/03/23 10:07:00;;;;;;;2.53;2.33;;;8.70;81.30;;;;;;5089054;28;20376;-86
2021/03/23 10:09:29;;;;;;;2.58;2.00;;;8.70;81.40;;;;;;5091807;28;20032;-86
2021/03/23 10:11:55;;;;;;;7.50;2.75;;;8.60;81.50;;;;;;5093187;28;20044;-87
2021/03/23 10:14:30;;;;;;;2.63;2.25;;;8.70;82.00;;;;;;5091615;28;20059;-86
2021/03/23 10:17:10;;;;;;;3.33;2.30;;;8.70;81.50;;;;;;5092677;28;20047;-86
2021/03/23 10:19:47;;;;;;;3.83;2.63;;;8.70;81.00;;;;;;5092360;28;20088;-87
2021/03/23 10:22:16;;;;;;;2.67;2.20;;;8.70;82.10;;;;;;5092619;28;20040;-86
2021/03/23 10:24:44;;;;;;;4.55;2.75;;;8.70;81.80;;;;;;5092109;28;20051;-86
2021/03/23 10:27:16;;;;;;;5.00;3.30;;;8.90;83.00;;;;;;5093015;28;20279;-85
2021/03/23 10:30:02;;;;;;;3.85;2.67;;;8.90;82.60;;;;;;5093007;28;20039;-88
2021/03/23 10:32:38;;;;;;;3.58;2.08;;;9.10;82.30;;;;;;5092677;28;20055;-87
2021/03/23 10:35:08;;;;;;;3.58;2.35;;;9.30;79.60;;;;;;5092391;28;20044;-85
2021/03/23 10:37:34;;;;;;;6.90;2.97;;;9.30;80.20;;;;;;5095613;28;20032;-86
2021/03/23 10:40:00;;;;;;;5.43;2.25;;;9.30;79.10;;;;;;5096588;28;20355;-86
2021/03/23 10:42:31;;;;;;;5.15;2.75;;;9.20;80.00;;;;;;5096491;28;20390;-86
2021/03/23 10:45:32;;;;;;;2.80;2.03;;;9.30;79.60;;;;;;5096625;28;20703;-86
2021/03/23 10:48:12;;;;;;;3.65;2.03;;;9.30;79.40;;;;;;5093357;28;20040;-88
2021/03/23 10:50:38;;;;;;;2.50;2.30;;;9.30;79.40;;;;;;5095457;28;20286;-87
2021/03/23 10:53:12;;;;;;;3.38;2.00;;;9.20;79.10;;;;;;5096035;28;20046;-87
2021/03/23 10:55:46;;;;;;;2.42;1.75;;;9.20;79.10;;;;;;5094002;28;20048;-87
2021/03/23 10:58:22;;;;;;;2.60;2.00;;;9.10;79.40;;;;;;5096048;28;20368;-86
2021/03/23 11:00:51;;;;;;;4.10;2.42;;;8.90;79.30;;;;;;5096224;28;20047;-87
2021/03/23 11:03:31;;;;;;;2.22;2.03;;;8.90;80.60;;;;;;5095968;28;20089;-87
2021/03/23 11:05:58;;;;;;;3.58;2.17;;;8.80;81.00;;;;;;5096628;28;20453;-87
2021/03/23 11:08:23;;;;;;;2.33;2.13;;;8.80;82.20;;;;;;5095959;28;20317;-86
2021/03/23 11:10:49;;;;;;;2.42;2.05;;;8.80;81.60;;;;;;5095479;28;20036;-87
2021/03/23 11:13:16;;;;;;;2.70;2.10;;;8.90;81.30;;;;;;5094211;28;20044;-87
2021/03/23 11:15:44;;;;;;;8.07;5.30;;;9.00;81.50;;;;;;5094562;28;20039;-87
2021/03/23 11:18:29;;;;;;;27.35;24.42;;;9.10;80.50;;;;;;5095838;28;20054;-86
2021/03/23 11:20:55;;;;;;;33.63;19.08;;;9.10;80.40;;;;;;5095409;28;20051;-88
2021/03/23 11:23:40;;;;;;;5.70;4.55;;;9.00;80.50;;;;;;5096086;28;20035;-87
2021/03/23 11:26:08;;;;;;;3.20;2.55;;;9.00;80.50;;;;;;5090714;28;20575;-87
2021/03/23 11:28:34;;;;;;;5.35;3.25;;;8.90;80.90;;;;;;5095799;28;20028;-86
2021/03/23 11:31:02;;;;;;;4.55;3.20;;;8.80;81.80;;;;;;5094802;28;20044;-87
2021/03/23 11:33:28;;;;;;;3.28;2.97;;;8.70;83.10;;;;;;5094680;28;20040;-84
2021/03/23 11:35:54;;;;;;;6.45;3.47;;;8.60;82.80;;;;;;5095369;28;20027;-85
2021/03/23 11:38:20;;;;;;;7.00;3.72;;;8.60;83.10;;;;;;5098361;28;20039;-86
2021/03/23 11:40:46;;;;;;;4.38;3.20;;;8.60;83.10;;;;;;5095052;28;20155;-85
2021/03/23 11:43:34;;;;;;;6.90;3.55;;;8.60;82.70;;;;;;5096533;28;20402;-86
2021/03/23 11:46:30;;;;;;;7.53;4.13;;;8.50;82.50;;;;;;5100090;28;20097;-86
2021/03/23 11:49:06;;;;;;;4.40;3.35;;;8.60;81.70;;;;;;5092638;28;20139;-88
2021/03/23 11:51:32;;;;;;;5.95;3.75;;;8.70;82.30;;;;;;5094136;28;20064;-86
2021/03/23 11:53:57;;;;;;;4.82;3.42;;;8.70;81.60;;;;;;5094498;28;20072;-85
2021/03/23 11:56:23;;;;;;;8.43;3.75;;;8.70;81.60;;;;;;5095101;28;20116;-87
2021/03/23 11:58:49;;;;;;;5.28;3.47;;;8.70;82.40;;;;;;5093536;28;20036;-87
2021/03/23 12:01:15;;;;;;;4.57;3.53;;;8.80;82.70;;;;;;5094776;28;20066;-87
2021/03/23 12:03:40;;;;;;;7.00;3.53;;;9.00;82.30;;;;;;5094083;28;20051;-87
2021/03/23 12:06:07;;;;;;;4.22;3.35;;;9.00;81.40;;;;;;5095764;28;20050;-87
2021/03/23 12:08:46;;;;;;;4.68;3.47;;;9.00;81.50;;;;;;5094850;28;20040;-86
2021/03/23 12:11:37;;;;;;;6.43;4.03;;;9.00;80.60;;;;;;5095825;28;20522;-87
2021/03/23 12:14:40;;;;;;;4.75;3.00;;;9.00;80.30;;;;;;5095562;28;20587;-87
2021/03/23 12:17:08;;;;;;;5.15;3.90;;;9.00;79.80;;;;;;5095885;28;20032;-86
2021/03/23 12:19:40;;;;;;;6.57;4.40;;;8.90;80.90;;;;;;5094796;28;20348;-87
2021/03/23 12:22:09;;;;;;;2.97;2.70;;;8.90;81.80;;;;;;5095190;28;20126;-87
2021/03/23 12:24:34;;;;;;;4.45;3.40;;;8.80;82.30;;;;;;5094144;28;20036;-87
2021/03/23 12:27:00;;;;;;;4.20;3.55;;;8.80;82.80;;;;;;5095149;28;20151;-87
2021/03/23 12:29:26;;;;;;;3.42;3.08;;;8.80;83.00;;;;;;5095391;28;20160;-88
2021/03/23 12:31:51;;;;;;;4.93;3.92;;;8.80;83.10;;;;;;5095507;28;20043;-87
2021/03/23 12:34:17;;;;;;;4.85;3.70;;;8.70;82.90;;;;;;5094289;28;20076;-87
2021/03/23 12:36:43;;;;;;;4.25;3.38;;;8.60;83.20;;;;;;5094530;28;20085;-86
2021/03/23 12:39:10;;;;;;;7.85;4.28;;;8.60;83.50;;;;;;5094875;28;20032;-87
2021/03/23 12:41:36;;;;;;;4.95;3.45;;;8.60;84.70;;;;;;5094141;28;20047;-84
2021/03/23 12:44:04;;;;;;;5.32;3.92;;;8.60;85.50;;;;;;5094475;28;20416;-87
2021/03/23 12:46:30;;;;;;;6.47;4.38;;;8.60;84.70;;;;;;5094043;28;20313;-87
2021/03/23 12:48:57;;;;;;;4.68;4.03;;;8.60;85.00;;;;;;5094638;28;20050;-87
2021/03/23 12:51:43;;;;;;;4.43;3.38;;;8.70;84.60;;;;;;5095338;28;20068;-87
2021/03/23 12:54:22;;;;;;;3.97;3.20;;;8.80;84.50;;;;;;5094387;28;20035;-86
2021/03/23 12:56:49;;;;;;;5.72;3.53;;;8.90;83.90;;;;;;5094736;28;20051;-86
2021/03/23 12:59:25;;;;;;;4.30;3.25;;;9.00;83.80;;;;;;5094249;28;20119;-86
2021/03/23 13:01:52;;;;;;;5.03;3.70;;;9.10;82.80;;;;;;5093505;28;20036;-85
2021/03/23 13:04:20;;;;;;;4.20;3.10;;;9.10;82.00;;;;;;5093988;28;20076;-85
2021/03/23 13:06:46;;;;;;;4.90;3.03;;;9.10;82.40;;;;;;5093767;28;20051;-87
2021/03/23 13:09:12;;;;;;;5.10;3.13;;;9.00;82.00;;;;;;5094660;28;20310;-88
2021/03/23 13:11:43;;;;;;;4.53;3.65;;;9.10;81.90;;;;;;5093862;28;20044;-87
2021/03/23 13:14:19;;;;;;;5.00;3.63;;;9.00;81.50;;;;;;5094151;28;20043;-86
2021/03/23 13:16:44;;;;;;;3.95;2.67;;;9.10;81.90;;;;;;5094346;28;20312;-87
2021/03/23 13:19:10;;;;;;;5.85;3.78;;;9.10;81.10;;;;;;5094362;28;20036;-87
2021/03/23 13:21:40;;;;;;;6.93;3.65;;;9.00;80.90;;;;;;5094251;28;20039;-87
2021/03/23 13:24:31;;;;;;;4.68;3.53;;;9.00;81.70;;;;;;5093356;28;20511;-87
2021/03/23 13:27:00;;;;;;;3.92;3.40;;;9.00;82.60;;;;;;5085080;28;20075;-86